createdAt,value
2019-02-24T00:00:38.256Z,0.00
2019-02-24T00:01:38.294Z,0.00
2019-02-24T00:02:38.394Z,0.00
2019-02-24T00:03:38.305Z,0.00
2019-02-24T00:04:38.633Z,0.00
2019-02-24T00:05:38.416Z,0.00
2019-02-24T00:06:38.436Z,0.00
2019-02-24T00:07:38.416Z,0.00
2019-02-24T00:08:38.455Z,0.00
2019-02-24T00:10:38.560Z,0.00
2019-02-24T00:11:38.614Z,0.00
2019-02-24T00:12:38.580Z,0.00
2019-02-24T00:13:38.658Z,0.00
2019-02-24T00:15:38.669Z,0.00
2019-02-24T00:16:38.783Z,0.00
2019-02-24T00:17:39.047Z,0.00
2019-02-24T00:18:38.764Z,0.00
2019-02-24T00:19:38.845Z,0.00
2019-02-24T00:20:38.834Z,0.00
2019-02-24T00:21:38.916Z,0.00
2019-02-24T00:23:38.972Z,0.00
2019-02-24T00:24:39.259Z,0.00
2019-02-24T00:25:39.046Z,0.00
2019-02-24T00:27:39.098Z,0.00
2019-02-24T00:28:39.083Z,0.00
2019-02-24T00:29:39.164Z,0.00
2019-02-24T00:30:39.446Z,0.00
2019-02-24T00:31:39.177Z,0.00
2019-02-24T00:32:39.262Z,0.00
2019-02-24T00:33:39.286Z,0.00
2019-02-24T00:34:39.269Z,0.00
2019-02-24T00:35:39.355Z,0.00
2019-02-24T00:36:39.645Z,0.00
2019-02-24T00:37:39.414Z,0.00
2019-02-24T00:38:39.454Z,0.00
2019-02-24T00:39:39.428Z,0.00
2019-02-24T00:40:39.461Z,0.00
2019-02-24T00:41:39.496Z,0.00
2019-02-24T00:42:39.895Z,0.00
2019-02-24T00:43:39.552Z,0.00
2019-02-24T00:44:39.583Z,0.00
2019-02-24T00:45:39.667Z,0.00
2019-02-24T00:46:39.694Z,0.00
2019-02-24T00:47:39.674Z,0.00
2019-02-24T00:48:39.759Z,0.00
2019-02-24T00:49:40.041Z,0.00
2019-02-24T00:50:39.819Z,0.00
2019-02-24T00:51:39.801Z,0.00
2019-02-24T00:53:39.866Z,0.00
2019-02-24T00:54:39.897Z,0.00
2019-02-24T00:55:39.981Z,0.00
2019-02-24T00:56:40.264Z,0.00
2019-02-24T00:58:40.023Z,0.00
2019-02-24T01:00:40.133Z,0.00
2019-02-24T01:01:40.164Z,0.00
2019-02-24T01:02:40.216Z,0.00
2019-02-24T01:03:40.475Z,0.00
2019-02-24T01:04:40.209Z,0.00
2019-02-24T01:05:40.295Z,0.00
2019-02-24T01:06:40.321Z,0.00
2019-02-24T01:07:40.349Z,0.00
2019-02-24T01:08:40.381Z,0.00
2019-02-24T01:09:40.366Z,0.00
2019-02-24T01:10:40.750Z,0.00
2019-02-24T01:11:40.489Z,0.00
2019-02-24T01:12:40.463Z,0.00
2019-02-24T01:13:40.548Z,0.00
2019-02-24T01:14:40.573Z,0.00
2019-02-24T01:15:40.558Z,0.00
2019-02-24T01:16:40.637Z,0.00
2019-02-24T01:17:40.940Z,0.00
2019-02-24T01:18:40.650Z,0.00
2019-02-24T01:19:40.684Z,0.00
2019-02-24T01:20:40.712Z,0.00
2019-02-24T01:21:40.747Z,0.00
2019-02-24T01:22:40.833Z,0.00
2019-02-24T01:23:40.854Z,0.00
2019-02-24T01:24:41.185Z,0.00
2019-02-24T01:25:40.874Z,0.00
2019-02-24T01:26:40.918Z,0.00
2019-02-24T01:27:40.942Z,0.00
2019-02-24T01:28:41.014Z,0.00
2019-02-24T01:29:41.047Z,0.00
2019-02-24T01:30:41.028Z,0.00
2019-02-24T01:31:41.077Z,0.00
2019-02-24T01:32:41.164Z,0.00
2019-02-24T01:33:41.171Z,0.00
2019-02-24T01:34:41.147Z,0.00
2019-02-24T01:35:41.179Z,0.00
2019-02-24T01:36:41.259Z,0.00
2019-02-24T01:37:41.541Z,0.00
2019-02-24T01:38:41.320Z,0.00
2019-02-24T01:39:41.307Z,0.00
2019-02-24T01:40:41.338Z,0.00
2019-02-24T01:41:41.422Z,0.00
2019-02-24T01:42:41.454Z,0.00
2019-02-24T01:43:41.727Z,0.00
2019-02-24T01:44:41.514Z,0.00
2019-02-24T01:45:41.546Z,0.00
2019-02-24T01:46:41.522Z,0.00
2019-02-24T01:47:41.616Z,0.00
2019-02-24T01:48:41.589Z,0.00
2019-02-24T01:49:41.975Z,0.00
2019-02-24T01:50:41.656Z,0.00
2019-02-24T01:51:41.728Z,0.00
2019-02-24T01:52:41.720Z,0.00
2019-02-24T01:53:41.747Z,0.00
2019-02-24T01:54:41.828Z,0.00
2019-02-24T01:56:42.188Z,0.00
2019-02-24T01:57:41.919Z,0.00
2019-02-24T01:58:41.955Z,0.00
2019-02-24T01:59:41.927Z,0.00
2019-02-24T02:00:41.968Z,0.00
2019-02-24T02:01:42.044Z,0.00
2019-02-24T02:02:42.026Z,0.00
2019-02-24T02:03:42.106Z,0.00
2019-02-24T02:04:42.082Z,0.00
2019-02-24T02:05:42.115Z,0.00
2019-02-24T02:06:42.199Z,0.00
2019-02-24T02:07:42.176Z,0.00
2019-02-24T02:08:42.514Z,0.00
2019-02-24T02:09:42.289Z,0.00
2019-02-24T02:10:42.324Z,0.00
2019-02-24T02:11:42.302Z,0.00
2019-02-24T02:12:42.332Z,0.00
2019-02-24T02:13:42.383Z,0.00
2019-02-24T02:14:42.420Z,0.00
2019-02-24T02:15:42.787Z,0.00
2019-02-24T02:16:42.458Z,0.00
2019-02-24T02:17:42.546Z,0.00
2019-02-24T02:18:42.529Z,0.00
2019-02-24T02:19:42.602Z,0.00
2019-02-24T02:20:42.581Z,0.00
2019-02-24T02:21:42.666Z,0.00
2019-02-24T02:22:42.949Z,0.00
2019-02-24T02:24:42.766Z,0.00
2019-02-24T02:25:42.801Z,0.00
2019-02-24T02:26:42.768Z,0.00
2019-02-24T02:27:42.801Z,0.00
2019-02-24T02:28:44.209Z,0.00
2019-02-24T02:29:43.164Z,0.00
2019-02-24T02:30:42.948Z,0.00
2019-02-24T02:31:42.927Z,0.00
2019-02-24T02:32:42.961Z,0.00
2019-02-24T02:33:43.058Z,0.00
2019-02-24T02:34:43.023Z,0.00
2019-02-24T02:35:43.105Z,0.00
2019-02-24T02:36:43.387Z,0.00
2019-02-24T02:37:43.119Z,0.00
2019-02-24T02:38:43.206Z,0.00
2019-02-24T02:39:43.182Z,0.00
2019-02-24T02:40:43.210Z,0.00
2019-02-24T02:41:43.303Z,0.00
2019-02-24T02:42:43.276Z,0.00
2019-02-24T02:43:43.598Z,0.00
2019-02-24T02:44:43.407Z,0.00
2019-02-24T02:45:43.413Z,0.00
2019-02-24T02:46:43.399Z,0.00
2019-02-24T02:47:43.476Z,0.00
2019-02-24T02:48:43.468Z,0.00
2019-02-24T02:49:43.802Z,0.00
2019-02-24T02:50:43.525Z,0.00
2019-02-24T02:51:43.550Z,0.00
2019-02-24T02:52:43.640Z,0.00
2019-02-24T02:53:43.668Z,0.00
2019-02-24T02:54:43.697Z,0.00
2019-02-24T02:55:43.990Z,0.00
2019-02-24T02:56:43.712Z,0.00
2019-02-24T02:57:43.786Z,0.00
2019-02-24T02:58:53.653Z,0.00
2019-02-24T02:59:43.924Z,0.00
2019-02-24T03:00:43.846Z,0.00
2019-02-24T03:01:44.164Z,0.00
2019-02-24T03:02:43.901Z,0.00
2019-02-24T03:03:43.972Z,0.00
2019-02-24T03:04:44.007Z,0.00
2019-02-24T03:05:44.039Z,0.00
2019-02-24T03:06:44.069Z,0.00
2019-02-24T03:07:44.102Z,0.00
2019-02-24T03:08:44.381Z,0.00
2019-02-24T03:09:44.167Z,0.00
2019-02-24T03:10:44.141Z,0.00
2019-02-24T03:11:44.180Z,0.00
2019-02-24T03:12:44.203Z,0.00
2019-02-24T03:13:44.239Z,0.00
2019-02-24T03:14:44.313Z,0.00
2019-02-24T03:15:44.605Z,0.00
2019-02-24T03:16:44.383Z,0.00
2019-02-24T03:17:44.408Z,0.00
2019-02-24T03:18:44.388Z,0.00
2019-02-24T03:19:44.469Z,0.00
2019-02-24T03:20:44.463Z,0.00
2019-02-24T03:21:44.531Z,0.00
2019-02-24T03:22:44.834Z,0.00
2019-02-24T03:23:44.596Z,0.00
2019-02-24T03:24:44.580Z,0.00
2019-02-24T03:25:44.660Z,0.00
2019-02-24T03:26:44.695Z,0.00
2019-02-24T03:27:44.676Z,0.00
2019-02-24T03:28:44.751Z,0.00
2019-02-24T03:29:45.091Z,0.00
2019-02-24T03:30:44.764Z,0.00
2019-02-24T03:31:44.796Z,0.00
2019-02-24T03:32:44.831Z,0.00
2019-02-24T03:33:45.309Z,0.00
2019-02-24T03:34:44.938Z,0.00
2019-02-24T03:35:44.918Z,0.00
2019-02-24T03:36:45.256Z,0.00
2019-02-24T03:37:45.035Z,0.00
2019-02-24T03:38:45.072Z,0.00
2019-02-24T03:39:45.079Z,0.00
2019-02-24T03:40:45.081Z,0.00
2019-02-24T03:41:45.159Z,0.00
2019-02-24T03:42:45.188Z,0.00
2019-02-24T03:43:45.469Z,0.00
2019-02-24T03:44:45.196Z,0.00
2019-02-24T03:45:45.286Z,0.00
2019-02-24T03:46:45.263Z,0.00
2019-02-24T03:47:45.294Z,0.00
2019-02-24T03:48:45.429Z,0.00
2019-02-24T03:49:45.364Z,0.00
2019-02-24T03:50:45.693Z,0.00
2019-02-24T03:51:45.416Z,0.00
2019-02-24T03:52:45.451Z,0.00
2019-02-24T03:53:45.481Z,0.00
2019-02-24T03:54:45.563Z,0.00
2019-02-24T03:55:45.546Z,0.00
2019-02-24T03:56:45.570Z,0.00
2019-02-24T03:57:45.899Z,0.00
2019-02-24T03:58:45.685Z,0.00
2019-02-24T03:59:45.667Z,0.00
2019-02-24T04:00:45.747Z,0.00
2019-02-24T04:01:45.801Z,0.00
2019-02-24T04:03:45.889Z,0.00
2019-02-24T04:04:46.123Z,0.00
2019-02-24T04:05:45.900Z,0.00
2019-02-24T04:07:45.914Z,0.00
2019-02-24T04:08:46.002Z,0.00
2019-02-24T04:09:45.970Z,0.00
2019-02-24T04:10:46.053Z,0.00
2019-02-24T04:11:46.044Z,0.00
2019-02-24T04:12:46.074Z,0.00
2019-02-24T04:13:46.144Z,0.00
2019-02-24T04:14:46.197Z,0.00
2019-02-24T04:15:46.164Z,0.00
2019-02-24T04:16:46.192Z,0.00
2019-02-24T04:17:46.523Z,0.00
2019-02-24T04:18:46.307Z,0.00
2019-02-24T04:19:46.287Z,0.00
2019-02-24T04:20:46.360Z,0.00
2019-02-24T04:21:46.405Z,0.00
2019-02-24T04:22:46.381Z,0.00
2019-02-24T04:23:46.799Z,0.00
2019-02-24T04:24:46.443Z,0.00
2019-02-24T04:25:46.471Z,0.00
2019-02-24T04:26:46.554Z,0.00
2019-02-24T04:27:46.534Z,0.00
2019-02-24T04:28:46.566Z,0.00
2019-02-24T04:29:46.942Z,0.00
2019-02-24T04:30:46.678Z,0.00
2019-02-24T04:31:46.651Z,0.00
2019-02-24T04:32:46.704Z,0.00
2019-02-24T04:33:46.770Z,0.00
2019-02-24T04:34:46.815Z,0.00
2019-02-24T04:35:47.082Z,0.00
2019-02-24T04:36:46.867Z,0.00
2019-02-24T04:37:46.898Z,0.00
2019-02-24T04:38:46.869Z,0.00
2019-02-24T04:39:46.952Z,0.00
2019-02-24T04:40:46.983Z,0.00
2019-02-24T04:41:47.017Z,0.00
2019-02-24T04:42:47.319Z,0.00
2019-02-24T04:43:47.032Z,0.00
2019-02-24T04:44:47.106Z,0.00
2019-02-24T04:46:47.174Z,0.00
2019-02-24T04:47:47.153Z,0.00
2019-02-24T04:48:47.180Z,0.00
2019-02-24T04:49:47.513Z,0.00
2019-02-24T04:50:47.293Z,0.00
2019-02-24T04:51:47.277Z,0.00
2019-02-24T04:52:47.308Z,0.00
2019-02-24T04:54:47.370Z,0.00
2019-02-24T04:55:47.458Z,0.00
2019-02-24T04:56:47.733Z,0.00
2019-02-24T04:57:47.515Z,0.00
2019-02-24T04:59:47.576Z,0.00
2019-02-24T05:00:47.555Z,0.00
2019-02-24T05:01:47.588Z,0.00
2019-02-24T05:02:47.615Z,0.00
2019-02-24T05:03:47.961Z,0.00
2019-02-24T05:04:47.673Z,0.00
2019-02-24T05:06:47.792Z,0.00
2019-02-24T05:07:47.767Z,0.00
2019-02-24T05:08:47.870Z,0.00
2019-02-24T05:09:47.883Z,0.00
2019-02-24T05:10:48.175Z,0.00
2019-02-24T05:11:47.897Z,0.00
2019-02-24T05:12:47.925Z,0.00
2019-02-24T05:13:48.008Z,0.00
2019-02-24T05:14:48.048Z,0.00
2019-02-24T05:16:48.113Z,0.00
2019-02-24T05:17:48.378Z,0.00
2019-02-24T05:18:48.160Z,0.00
2019-02-24T05:19:48.195Z,0.00
2019-02-24T05:20:48.275Z,0.00
2019-02-24T05:21:48.258Z,0.00
2019-02-24T05:23:48.314Z,0.00
2019-02-24T05:24:48.657Z,0.00
2019-02-24T05:25:48.383Z,0.00
2019-02-24T05:26:48.362Z,0.00
2019-02-24T05:27:48.397Z,0.00
2019-02-24T05:28:48.481Z,0.00
2019-02-24T05:29:48.505Z,0.00
2019-02-24T05:30:48.531Z,0.00
2019-02-24T05:31:48.877Z,0.00
2019-02-24T05:32:48.547Z,0.00
2019-02-24T05:33:48.620Z,0.00
2019-02-24T05:34:48.656Z,0.00
2019-02-24T05:35:48.933Z,0.00
2019-02-24T05:36:48.728Z,0.00
2019-02-24T05:37:48.753Z,0.00
2019-02-24T05:38:49.041Z,0.00
2019-02-24T05:39:48.810Z,0.00
2019-02-24T05:40:48.789Z,0.00
2019-02-24T05:41:48.875Z,0.00
2019-02-24T05:42:48.907Z,0.00
2019-02-24T05:43:48.936Z,0.00
2019-02-24T05:44:48.923Z,0.00
2019-02-24T05:45:49.245Z,0.00
2019-02-24T05:46:49.029Z,0.00
2019-02-24T05:47:49.018Z,0.00
2019-02-24T05:48:49.045Z,0.00
2019-02-24T05:49:49.119Z,0.00
2019-02-24T05:50:49.115Z,0.00
2019-02-24T05:51:49.180Z,0.00
2019-02-24T05:53:49.503Z,0.00
2019-02-24T05:54:49.219Z,0.00
2019-02-24T05:55:49.254Z,0.00
2019-02-24T05:56:49.333Z,0.00
2019-02-24T05:57:49.365Z,0.00
2019-02-24T05:58:49.343Z,0.00
2019-02-24T05:59:55.238Z,0.00
2019-02-24T06:00:49.709Z,0.00
2019-02-24T06:01:49.490Z,0.00
2019-02-24T06:02:49.521Z,0.00
2019-02-24T06:04:49.580Z,0.00
2019-02-24T06:05:49.615Z,0.00
2019-02-24T06:07:49.624Z,4.00
2019-02-24T06:08:49.958Z,0.00
2019-02-24T06:09:49.704Z,4.00
2019-02-24T06:10:49.767Z,4.00
2019-02-24T06:11:49.758Z,4.00
2019-02-24T06:12:49.793Z,8.00
2019-02-24T06:13:49.820Z,8.00
2019-02-24T06:14:49.846Z,8.00
2019-02-24T06:15:50.168Z,8.00
2019-02-24T06:16:49.903Z,12.00
2019-02-24T06:17:49.980Z,16.00
2019-02-24T06:18:49.974Z,16.00
2019-02-24T06:20:50.086Z,24.00
2019-02-24T06:21:50.103Z,24.00
2019-02-24T06:22:50.433Z,28.00
2019-02-24T06:23:50.266Z,36.00
2019-02-24T06:25:50.232Z,44.00
2019-02-24T06:26:50.219Z,44.00
2019-02-24T06:27:50.306Z,48.00
2019-02-24T06:28:50.341Z,56.00
2019-02-24T06:30:50.637Z,68.00
2019-02-24T06:31:50.365Z,76.00
2019-02-24T06:32:50.398Z,80.00
2019-02-24T06:33:50.536Z,88.00
2019-02-24T06:34:50.511Z,96.00
2019-02-24T06:35:50.590Z,104.00
2019-02-24T06:36:50.571Z,112.00
2019-02-24T06:37:50.961Z,120.00
2019-02-24T06:38:50.640Z,128.00
2019-02-24T06:39:50.916Z,136.00
2019-02-24T06:40:50.647Z,144.00
2019-02-24T06:41:50.674Z,152.00
2019-02-24T06:43:50.786Z,168.00
2019-02-24T06:44:51.064Z,180.00
2019-02-24T06:45:50.865Z,188.00
2019-02-24T06:46:50.827Z,196.00
2019-02-24T06:47:50.915Z,212.00
2019-02-24T06:48:50.895Z,224.00
2019-02-24T06:49:50.970Z,232.00
2019-02-24T06:50:50.950Z,244.00
2019-02-24T06:51:51.286Z,256.00
2019-02-24T06:52:51.064Z,268.00
2019-02-24T06:53:51.110Z,276.00
2019-02-24T06:54:51.074Z,288.00
2019-02-24T06:55:51.099Z,296.00
2019-02-24T06:56:51.186Z,304.00
2019-02-24T06:57:51.213Z,312.00
2019-02-24T06:58:51.601Z,324.00
2019-02-24T06:59:51.281Z,332.00
2019-02-24T07:00:51.379Z,336.00
2019-02-24T07:01:51.340Z,344.00
2019-02-24T07:02:51.364Z,352.00
2019-02-24T07:03:51.354Z,360.00
2019-02-24T07:04:51.381Z,368.00
2019-02-24T07:05:51.722Z,376.00
2019-02-24T07:06:51.503Z,384.00
2019-02-24T07:07:51.483Z,392.00
2019-02-24T07:08:51.557Z,400.00
2019-02-24T07:09:51.590Z,408.00
2019-02-24T07:10:51.584Z,420.00
2019-02-24T07:11:51.643Z,428.00
2019-02-24T07:12:51.990Z,432.00
2019-02-24T07:13:51.715Z,440.00
2019-02-24T07:14:51.738Z,448.00
2019-02-24T07:15:51.717Z,456.00
2019-02-24T07:16:51.813Z,460.00
2019-02-24T07:17:51.786Z,464.00
2019-02-24T07:19:52.142Z,472.00
2019-02-24T07:20:51.878Z,480.00
2019-02-24T07:22:51.989Z,492.00
2019-02-24T07:23:51.964Z,500.00
2019-02-24T07:24:52.004Z,500.00
2019-02-24T07:25:52.377Z,508.00
2019-02-24T07:26:52.056Z,516.00
2019-02-24T07:27:52.143Z,520.00
2019-02-24T07:28:52.118Z,524.00
2019-02-24T07:29:52.205Z,528.00
2019-02-24T07:30:52.238Z,536.00
2019-02-24T07:31:52.510Z,540.00
2019-02-24T07:32:52.251Z,544.00
2019-02-24T07:33:52.278Z,552.00
2019-02-24T07:34:52.311Z,552.00
2019-02-24T07:36:52.414Z,564.00
2019-02-24T07:37:52.448Z,568.00
2019-02-24T07:39:52.515Z,576.00
2019-02-24T07:40:52.490Z,576.00
2019-02-24T07:41:52.578Z,584.00
2019-02-24T07:42:52.619Z,584.00
2019-02-24T07:43:52.887Z,592.00
2019-02-24T07:44:52.616Z,596.00
2019-02-24T07:45:52.697Z,600.00
2019-02-24T07:46:52.686Z,608.00
2019-02-24T07:48:52.787Z,616.00
2019-02-24T07:50:52.795Z,628.00
2019-02-24T07:52:53.165Z,632.00
2019-02-24T07:53:52.953Z,636.00
2019-02-24T07:54:52.970Z,640.00
2019-02-24T07:56:53.363Z,648.00
2019-02-24T07:57:53.067Z,652.00
2019-02-24T07:58:53.044Z,652.00
2019-02-24T07:59:53.391Z,656.00
2019-02-24T08:00:53.118Z,664.00
2019-02-24T08:01:53.143Z,664.00
2019-02-24T08:02:53.222Z,668.00
2019-02-24T08:03:53.199Z,672.00
2019-02-24T08:04:53.278Z,680.00
2019-02-24T08:05:53.326Z,680.00
2019-02-24T08:06:53.339Z,684.00
2019-02-24T08:07:53.327Z,688.00
2019-02-24T08:08:53.374Z,692.00
2019-02-24T08:10:53.469Z,696.00
2019-02-24T08:11:53.444Z,700.00
2019-02-24T08:12:53.778Z,696.00
2019-02-24T08:13:53.557Z,704.00
2019-02-24T08:14:53.542Z,704.00
2019-02-24T08:15:53.604Z,708.00
2019-02-24T08:17:53.696Z,712.00
2019-02-24T08:18:53.862Z,712.00
2019-02-24T08:19:54.030Z,716.00
2019-02-24T08:22:53.808Z,720.00
2019-02-24T08:23:53.876Z,720.00
2019-02-24T08:24:53.857Z,720.00
2019-02-24T08:25:53.944Z,720.00
2019-02-24T08:28:53.973Z,732.00
2019-02-24T08:29:54.063Z,736.00
2019-02-24T08:31:54.123Z,740.00
2019-02-24T08:32:54.105Z,744.00
2019-02-24T08:33:54.438Z,748.00
2019-02-24T08:34:54.165Z,752.00
2019-02-24T08:35:54.193Z,752.00
2019-02-24T08:37:54.311Z,756.00
2019-02-24T08:38:54.338Z,756.00
2019-02-24T08:39:54.329Z,760.00
2019-02-24T08:40:55.090Z,760.00
2019-02-24T08:41:54.431Z,764.00
2019-02-24T08:42:54.466Z,764.00
2019-02-24T08:44:54.524Z,772.00
2019-02-24T08:45:54.556Z,772.00
2019-02-24T08:47:54.866Z,776.00
2019-02-24T08:48:54.666Z,776.00
2019-02-24T08:49:54.625Z,776.00
2019-02-24T08:50:54.715Z,780.00
2019-02-24T08:52:54.740Z,784.00
2019-02-24T08:53:54.812Z,784.00
2019-02-24T08:54:55.082Z,784.00
2019-02-24T08:55:54.868Z,784.00
2019-02-24T08:56:55.694Z,788.00
2019-02-24T08:57:54.887Z,788.00
2019-02-24T08:58:54.920Z,792.00
2019-02-24T08:59:54.985Z,792.00
2019-02-24T09:01:55.057Z,796.00
2019-02-24T09:02:55.438Z,796.00
2019-02-24T09:03:55.080Z,796.00
2019-02-24T09:04:55.098Z,800.00
2019-02-24T09:05:55.185Z,804.00
2019-02-24T09:06:55.156Z,804.00
2019-02-24T09:07:55.244Z,804.00
2019-02-24T09:08:55.268Z,804.00
2019-02-24T09:09:55.556Z,808.00
2019-02-24T09:11:55.362Z,812.00
2019-02-24T09:12:55.416Z,812.00
2019-02-24T09:13:55.424Z,816.00
2019-02-24T09:14:55.507Z,812.00
2019-02-24T09:15:55.504Z,816.00
2019-02-24T09:16:55.772Z,820.00
2019-02-24T09:17:55.559Z,820.00
2019-02-24T09:18:55.589Z,824.00
2019-02-24T09:19:55.625Z,824.00
2019-02-24T09:20:55.593Z,828.00
2019-02-24T09:21:55.626Z,824.00
2019-02-24T09:22:55.708Z,832.00
2019-02-24T09:23:55.992Z,828.00
2019-02-24T09:25:55.809Z,836.00
2019-02-24T09:26:55.789Z,836.00
2019-02-24T09:27:55.868Z,836.00
2019-02-24T09:29:55.932Z,840.00
2019-02-24T09:31:00.718Z,840.00
2019-02-24T09:31:55.935Z,844.00
2019-02-24T09:32:56.019Z,844.00
2019-02-24T09:34:56.027Z,848.00
2019-02-24T09:35:56.075Z,852.00
2019-02-24T09:36:56.141Z,852.00
2019-02-24T09:37:56.477Z,852.00
2019-02-24T09:39:56.266Z,856.00
2019-02-24T09:40:56.277Z,860.00
2019-02-24T09:41:56.310Z,860.00
2019-02-24T09:42:56.334Z,864.00
2019-02-24T09:43:56.322Z,864.00
2019-02-24T09:44:56.342Z,868.00
2019-02-24T09:45:56.426Z,868.00
2019-02-24T09:46:56.415Z,872.00
2019-02-24T09:47:56.492Z,872.00
2019-02-24T09:49:56.505Z,876.00
2019-02-24T09:50:56.840Z,876.00
2019-02-24T09:51:56.579Z,876.00
2019-02-24T09:52:56.653Z,880.00
2019-02-24T09:53:56.711Z,884.00
2019-02-24T09:54:56.706Z,884.00
2019-02-24T09:55:56.740Z,888.00
2019-02-24T09:56:57.038Z,888.00
2019-02-24T09:57:56.808Z,892.00
2019-02-24T09:58:56.844Z,892.00
2019-02-24T09:59:56.824Z,892.00
2019-02-24T10:00:56.851Z,896.00
2019-02-24T10:01:56.926Z,900.00
2019-02-24T10:02:57.696Z,904.00
2019-02-24T10:03:56.997Z,904.00
2019-02-24T10:06:57.096Z,912.00
2019-02-24T10:07:57.138Z,912.00
2019-02-24T10:08:57.106Z,916.00
2019-02-24T10:10:57.222Z,920.00
2019-02-24T10:11:57.284Z,920.00
2019-02-24T10:12:57.293Z,924.00
2019-02-24T10:13:57.410Z,928.00
2019-02-24T10:14:57.296Z,928.00
2019-02-24T10:15:57.367Z,928.00
2019-02-24T10:16:57.659Z,932.00
2019-02-24T10:17:57.432Z,936.00
2019-02-24T10:18:57.475Z,940.00
2019-02-24T10:19:57.499Z,944.00
2019-02-24T10:20:57.482Z,940.00
2019-02-24T10:21:57.567Z,944.00
2019-02-24T10:22:57.536Z,948.00
2019-02-24T10:23:57.882Z,948.00
2019-02-24T10:24:57.669Z,952.00
2019-02-24T10:25:57.687Z,944.00
2019-02-24T10:26:57.742Z,956.00
2019-02-24T10:27:57.760Z,952.00
2019-02-24T10:28:57.836Z,960.00
2019-02-24T10:29:57.813Z,960.00
2019-02-24T10:30:58.096Z,968.00
2019-02-24T10:31:57.876Z,968.00
2019-02-24T10:32:57.908Z,972.00
2019-02-24T10:33:57.934Z,976.00
2019-02-24T10:34:57.970Z,976.00
2019-02-24T10:35:57.964Z,976.00
2019-02-24T10:36:58.076Z,980.00
2019-02-24T10:37:58.311Z,984.00
2019-02-24T10:38:58.096Z,988.00
2019-02-24T10:39:58.130Z,988.00
2019-02-24T10:40:58.154Z,996.00
2019-02-24T10:41:58.191Z,996.00
2019-02-24T10:42:58.218Z,1000.00
2019-02-24T10:43:58.211Z,1004.00
2019-02-24T10:44:58.540Z,1004.00
2019-02-24T10:45:58.315Z,1008.00
2019-02-24T10:46:58.354Z,1008.00
2019-02-24T10:47:58.388Z,1012.00
2019-02-24T10:49:03.348Z,1016.00
2019-02-24T10:49:58.385Z,1016.00
2019-02-24T10:50:58.470Z,1020.00
2019-02-24T10:51:58.757Z,1024.00
2019-02-24T10:52:58.484Z,1024.00
2019-02-24T10:53:58.579Z,1028.00
2019-02-24T10:54:58.607Z,1028.00
2019-02-24T10:55:58.641Z,1032.00
2019-02-24T10:56:58.661Z,1036.00
2019-02-24T10:57:58.700Z,1036.00
2019-02-24T10:58:58.969Z,1044.00
2019-02-24T10:59:58.752Z,1044.00
2019-02-24T11:00:58.747Z,1048.00
2019-02-24T11:01:58.825Z,1048.00
2019-02-24T11:02:58.855Z,1048.00
2019-02-24T11:03:58.883Z,1048.00
2019-02-24T11:04:58.877Z,1056.00
2019-02-24T11:05:58.905Z,1056.00
2019-02-24T11:06:58.931Z,1060.00
2019-02-24T11:07:59.024Z,1060.00
2019-02-24T11:08:59.052Z,1064.00
2019-02-24T11:09:59.074Z,1068.00
2019-02-24T11:10:59.219Z,1068.00
2019-02-24T11:11:59.426Z,1068.00
2019-02-24T11:12:59.183Z,1072.00
2019-02-24T11:13:59.257Z,1072.00
2019-02-24T11:14:59.265Z,1076.00
2019-02-24T11:15:59.277Z,1084.00
2019-02-24T11:16:59.324Z,1084.00
2019-02-24T11:18:01.483Z,1084.00
2019-02-24T11:18:59.428Z,1088.00
2019-02-24T11:19:59.526Z,1092.00
2019-02-24T11:20:59.495Z,1092.00
2019-02-24T11:21:59.504Z,1096.00
2019-02-24T11:22:59.615Z,1104.00
2019-02-24T11:23:59.872Z,1104.00
2019-02-24T11:24:59.582Z,1104.00
2019-02-24T11:25:59.705Z,1108.00
2019-02-24T11:26:59.625Z,1108.00
2019-02-24T11:28:59.629Z,1116.00
2019-02-24T11:30:00.053Z,1116.00
2019-02-24T11:30:59.739Z,1128.00
2019-02-24T11:31:59.784Z,1132.00
2019-02-24T11:33:59.915Z,1136.00
2019-02-24T11:34:59.858Z,1128.00
2019-02-24T11:35:59.988Z,1136.00
2019-02-24T11:37:00.199Z,1140.00
2019-02-24T11:38:00.018Z,1140.00
2019-02-24T11:40:00.025Z,1148.00
2019-02-24T11:41:00.004Z,1148.00
2019-02-24T11:42:00.097Z,1156.00
2019-02-24T11:43:00.123Z,1156.00
2019-02-24T11:44:00.411Z,1156.00
2019-02-24T11:45:00.316Z,1164.00
2019-02-24T11:46:00.216Z,1160.00
2019-02-24T11:47:00.255Z,1164.00
2019-02-24T11:48:00.282Z,1172.00
2019-02-24T11:49:00.324Z,1168.00
2019-02-24T11:50:00.359Z,1176.00
2019-02-24T11:51:00.680Z,1184.00
2019-02-24T11:52:03.863Z,1188.00
2019-02-24T11:53:00.392Z,1188.00
2019-02-24T11:54:00.423Z,1196.00
2019-02-24T11:55:00.500Z,1196.00
2019-02-24T11:56:00.539Z,1200.00
2019-02-24T11:57:00.520Z,1204.00
2019-02-24T11:58:00.607Z,1208.00
2019-02-24T11:59:00.585Z,1212.00
2019-02-24T12:00:00.700Z,1220.00
2019-02-24T12:01:00.696Z,1220.00
2019-02-24T12:02:00.683Z,1224.00
2019-02-24T12:03:00.712Z,1228.00
2019-02-24T12:04:01.041Z,1232.00
2019-02-24T12:05:00.829Z,1236.00
2019-02-24T12:06:00.811Z,1240.00
2019-02-24T12:07:00.833Z,1240.00
2019-02-24T12:08:00.878Z,1248.00
2019-02-24T12:09:05.299Z,1248.00
2019-02-24T12:10:00.980Z,1252.00
2019-02-24T12:11:01.267Z,1256.00
2019-02-24T12:12:01.055Z,1256.00
2019-02-24T12:13:01.044Z,1260.00
2019-02-24T12:14:01.118Z,1264.00
2019-02-24T12:15:01.090Z,1268.00
2019-02-24T12:16:01.177Z,1272.00
2019-02-24T12:17:01.158Z,1280.00
2019-02-24T12:18:01.493Z,1284.00
2019-02-24T12:19:01.240Z,1288.00
2019-02-24T12:20:01.259Z,1288.00
2019-02-24T12:21:01.358Z,1288.00
2019-02-24T12:22:01.375Z,1292.00
2019-02-24T12:23:01.405Z,1300.00
2019-02-24T12:24:01.693Z,1304.00
2019-02-24T12:25:01.538Z,1300.00
2019-02-24T12:26:01.492Z,1304.00
2019-02-24T12:28:01.561Z,1308.00
2019-02-24T12:29:01.546Z,1308.00
2019-02-24T12:30:01.875Z,1312.00
2019-02-24T12:31:01.608Z,1312.00
2019-02-24T12:32:01.638Z,1320.00
2019-02-24T12:33:01.725Z,1328.00
2019-02-24T12:34:01.769Z,1332.00
2019-02-24T12:35:01.740Z,1336.00
2019-02-24T12:36:01.819Z,1344.00
2019-02-24T12:37:01.935Z,1344.00
2019-02-24T12:38:02.175Z,1352.00
2019-02-24T12:39:01.912Z,1356.00
2019-02-24T12:40:02.023Z,1360.00
2019-02-24T12:41:01.978Z,1364.00
2019-02-24T12:43:02.295Z,1376.00
2019-02-24T12:44:02.078Z,1376.00
2019-02-24T12:45:02.060Z,1376.00
2019-02-24T12:46:02.091Z,1388.00
2019-02-24T12:47:02.121Z,1392.00
2019-02-24T12:48:02.203Z,1396.00
2019-02-24T12:49:02.240Z,1404.00
2019-02-24T12:50:03.587Z,1408.00
2019-02-24T12:51:02.249Z,1412.00
2019-02-24T12:52:02.274Z,1412.00
2019-02-24T12:53:02.318Z,1424.00
2019-02-24T12:54:02.399Z,1420.00
2019-02-24T12:55:02.385Z,1424.00
2019-02-24T12:56:02.419Z,1424.00
2019-02-24T12:57:02.742Z,1432.00
2019-02-24T12:58:02.480Z,1436.00
2019-02-24T12:59:02.510Z,1448.00
2019-02-24T13:00:02.585Z,1452.00
2019-02-24T13:01:02.578Z,1460.00
2019-02-24T13:02:05.614Z,1464.00
2019-02-24T13:03:02.683Z,1476.00
2019-02-24T13:04:02.965Z,1480.00
2019-02-24T13:05:02.742Z,1492.00
2019-02-24T13:06:02.775Z,1496.00
2019-02-24T13:07:02.764Z,1508.00
2019-02-24T13:08:02.849Z,1516.00
2019-02-24T13:09:02.831Z,1520.00
2019-02-24T13:10:02.862Z,1524.00
2019-02-24T13:11:02.947Z,1528.00
2019-02-24T13:12:02.922Z,1528.00
2019-02-24T13:13:02.956Z,1536.00
2019-02-24T13:14:03.040Z,1556.00
2019-02-24T13:15:03.489Z,1636.00
2019-02-24T13:16:03.109Z,1720.00
2019-02-24T13:17:03.385Z,1776.00
2019-02-24T13:18:03.118Z,1832.00
2019-02-24T13:19:03.154Z,1912.00
2019-02-24T13:20:03.180Z,2032.00
2019-02-24T13:21:03.262Z,2188.00
2019-02-24T13:22:03.304Z,2492.00
2019-02-24T13:23:03.325Z,3108.00
2019-02-24T13:24:03.610Z,3472.00
2019-02-24T13:25:03.342Z,3776.00
2019-02-24T13:26:03.378Z,4000.00
2019-02-24T13:27:05.488Z,4420.00
2019-02-24T13:28:03.463Z,4824.00
2019-02-24T13:29:03.473Z,5336.00
2019-02-24T13:30:03.568Z,6080.00
2019-02-24T13:31:03.538Z,6508.00
2019-02-24T13:32:03.621Z,6580.00
2019-02-24T13:33:03.614Z,6832.00
2019-02-24T13:34:03.694Z,7436.00
2019-02-24T13:35:03.665Z,7968.00
2019-02-24T13:36:03.709Z,8224.00
2019-02-24T13:37:04.132Z,8212.00
2019-02-24T13:38:03.765Z,8432.00
2019-02-24T13:39:03.794Z,8792.00
2019-02-24T13:40:03.832Z,9072.00
2019-02-24T13:41:03.859Z,9328.00
2019-02-24T13:42:03.971Z,9448.00
2019-02-24T13:44:04.261Z,10076.00
2019-02-24T13:45:04.095Z,10656.00